createdAt,value
2022-10-18T00:00:09.578Z,98.51
2022-10-18T00:02:38.323Z,98.66
2022-10-18T00:05:05.800Z,98.75
2022-10-18T00:07:33.273Z,98.65
2022-10-18T00:10:00.631Z,98.79
2022-10-18T00:12:27.879Z,98.71
2022-10-18T00:14:55.038Z,98.76
2022-10-18T00:17:22.202Z,99.13
2022-10-18T00:19:50.336Z,99.14
2022-10-18T00:22:17.460Z,99.16
2022-10-18T00:24:44.630Z,99.29
2022-10-18T00:27:11.807Z,99.49
2022-10-18T00:29:39.019Z,99.74
2022-10-18T00:32:06.198Z,99.63
2022-10-18T00:34:33.334Z,99.45
2022-10-18T00:37:00.481Z,99.26
2022-10-18T00:39:27.663Z,99.29
2022-10-18T00:41:55.013Z,99.31
2022-10-18T00:44:24.911Z,99.31
2022-10-18T00:46:55.721Z,99.48
2022-10-18T00:49:31.125Z,99.80
2022-10-18T00:52:03.842Z,99.79
2022-10-18T00:54:34.554Z,99.86
2022-10-18T00:57:02.631Z,100.00
2022-10-18T00:59:30.165Z,100.00
2022-10-18T01:01:57.456Z,100.00
2022-10-18T01:04:25.248Z,100.00
2022-10-18T01:07:28.916Z,100.00
2022-10-18T01:10:13.996Z,100.00
2022-10-18T01:13:10.190Z,100.00
2022-10-18T01:16:01.278Z,100.00
2022-10-18T01:18:36.222Z,100.00
2022-10-18T01:21:08.866Z,100.00
2022-10-18T01:23:57.547Z,100.00
2022-10-18T01:26:44.262Z,100.00
2022-10-18T01:29:42.348Z,100.00
2022-10-18T01:32:18.856Z,100.00
2022-10-18T01:34:48.817Z,100.00
2022-10-18T01:37:17.790Z,100.00
2022-10-18T01:39:47.866Z,100.00
2022-10-18T01:42:19.556Z,100.00
2022-10-18T01:44:48.324Z,100.00
2022-10-18T01:47:16.737Z,100.00
2022-10-18T01:49:43.870Z,100.00
2022-10-18T01:52:15.805Z,100.00
2022-10-18T01:54:46.136Z,100.00
2022-10-18T01:57:51.894Z,100.00
2022-10-18T02:00:35.078Z,100.00
2022-10-18T02:03:10.857Z,100.00
2022-10-18T02:05:46.602Z,100.00
2022-10-18T02:08:32.122Z,100.00
2022-10-18T02:11:04.734Z,100.00
2022-10-18T02:13:38.771Z,100.00
2022-10-18T02:16:12.035Z,100.00
2022-10-18T02:18:43.923Z,100.00
2022-10-18T02:21:14.151Z,100.00
2022-10-18T02:23:43.994Z,100.00
2022-10-18T02:26:11.476Z,100.00
2022-10-18T02:28:39.482Z,100.00
2022-10-18T02:31:20.334Z,100.00
2022-10-18T02:33:55.684Z,99.15
2022-10-18T02:36:28.788Z,99.17
2022-10-18T02:39:02.112Z,100.00
2022-10-18T02:41:30.875Z,99.95
2022-10-18T02:43:58.008Z,99.81
2022-10-18T02:48:57.242Z,100.00
2022-10-18T02:51:25.158Z,100.00
2022-10-18T02:53:52.368Z,100.00
2022-10-18T02:56:19.490Z,100.00
2022-10-18T02:58:46.594Z,100.00
2022-10-18T03:01:13.866Z,100.00
2022-10-18T03:03:41.114Z,100.00
2022-10-18T03:06:08.272Z,100.00
2022-10-18T03:08:36.461Z,100.00
2022-10-18T03:11:03.586Z,100.00
2022-10-18T03:16:02.703Z,100.00
2022-10-18T03:18:29.831Z,100.00
2022-10-18T03:20:56.891Z,100.00
2022-10-18T03:23:23.973Z,100.00
2022-10-18T03:25:51.156Z,100.00
2022-10-18T03:28:18.272Z,100.00
2022-10-18T03:30:45.452Z,100.00
2022-10-18T03:33:12.934Z,100.00
2022-10-18T03:35:40.036Z,100.00
2022-10-18T03:38:07.268Z,100.00
2022-10-18T03:40:34.750Z,100.00
2022-10-18T03:43:01.915Z,100.00
2022-10-18T03:45:31.290Z,100.00
2022-10-18T03:47:58.787Z,100.00
2022-10-18T03:50:25.904Z,100.00
2022-10-18T03:52:54.475Z,100.00
2022-10-18T03:55:21.822Z,100.00
2022-10-18T03:57:50.180Z,100.00
2022-10-18T04:00:17.565Z,100.00
2022-10-18T04:02:44.668Z,100.00
2022-10-18T04:05:12.880Z,100.00
2022-10-18T04:07:40.185Z,100.00
2022-10-18T04:10:08.000Z,100.00
2022-10-18T04:12:35.139Z,100.00
2022-10-18T04:15:03.065Z,100.00
2022-10-18T04:17:30.527Z,100.00
2022-10-18T04:19:57.782Z,100.00
2022-10-18T04:22:24.915Z,100.00
2022-10-18T04:24:53.311Z,100.00
2022-10-18T04:27:20.435Z,100.00
2022-10-18T04:29:47.526Z,100.00
2022-10-18T04:32:14.763Z,100.00
2022-10-18T04:37:13.878Z,100.00
2022-10-18T04:39:40.968Z,100.00
2022-10-18T04:42:08.272Z,100.00
2022-10-18T04:44:35.423Z,100.00
2022-10-18T04:47:02.681Z,100.00
2022-10-18T04:49:29.810Z,100.00
2022-10-18T04:51:56.874Z,100.00
2022-10-18T04:54:26.514Z,100.00
2022-10-18T04:56:55.787Z,100.00
2022-10-18T04:59:22.887Z,100.00
2022-10-18T05:01:50.074Z,100.00
2022-10-18T05:04:17.222Z,100.00
2022-10-18T05:06:44.283Z,100.00
2022-10-18T05:09:11.382Z,100.00
2022-10-18T05:11:38.599Z,100.00
2022-10-18T05:14:05.738Z,100.00
2022-10-18T05:16:33.096Z,100.00
2022-10-18T05:19:00.206Z,100.00
2022-10-18T05:21:27.381Z,100.00
2022-10-18T05:23:58.035Z,100.00
2022-10-18T05:26:25.143Z,100.00
2022-10-18T05:28:52.247Z,100.00
2022-10-18T05:31:19.366Z,100.00
2022-10-18T05:33:46.605Z,100.00
2022-10-18T05:36:13.851Z,100.00
2022-10-18T05:38:45.373Z,100.00
2022-10-18T05:41:12.826Z,100.00
2022-10-18T05:43:40.746Z,100.00
2022-10-18T05:46:13.549Z,100.00
2022-10-18T05:48:43.999Z,100.00
2022-10-18T05:51:11.288Z,100.00
2022-10-18T05:53:38.551Z,100.00
2022-10-18T05:56:07.203Z,100.00
2022-10-18T05:58:34.932Z,100.00
2022-10-18T06:01:03.682Z,100.00
2022-10-18T06:03:31.082Z,100.00
2022-10-18T06:06:06.105Z,100.00
2022-10-18T06:08:34.378Z,100.00
2022-10-18T06:11:06.948Z,100.00
2022-10-18T06:13:34.298Z,100.00
2022-10-18T06:16:01.466Z,99.61
2022-10-18T06:18:29.724Z,98.74
2022-10-18T06:20:58.266Z,98.36
2022-10-18T06:23:29.110Z,97.85
2022-10-18T06:26:01.000Z,97.29
2022-10-18T06:28:29.769Z,96.73
2022-10-18T06:30:57.917Z,95.75
2022-10-18T06:33:25.656Z,95.79
2022-10-18T06:36:01.322Z,95.00
2022-10-18T06:38:29.818Z,94.67
2022-10-18T06:40:58.022Z,94.49
2022-10-18T06:43:25.580Z,93.70
2022-10-18T06:45:53.325Z,93.06
2022-10-18T06:48:21.369Z,92.75
2022-10-18T06:50:59.115Z,91.51
2022-10-18T06:53:28.086Z,91.61
2022-10-18T06:56:10.339Z,90.75
2022-10-18T06:58:37.943Z,90.43
2022-10-18T07:01:23.047Z,89.54
2022-10-18T07:03:53.223Z,89.85
2022-10-18T07:06:21.073Z,88.39
2022-10-18T07:08:49.345Z,88.55
2022-10-18T07:11:19.472Z,88.19
2022-10-18T07:13:46.757Z,87.50
2022-10-18T07:16:18.324Z,86.86
2022-10-18T07:18:52.149Z,86.72
2022-10-18T07:21:22.690Z,86.78
2022-10-18T07:23:50.815Z,87.08
2022-10-18T07:26:32.039Z,86.90
2022-10-18T07:29:05.475Z,86.18
2022-10-18T07:31:33.366Z,84.92
2022-10-18T07:34:00.646Z,84.63
2022-10-18T07:36:27.761Z,84.26
2022-10-18T07:38:54.967Z,84.12
2022-10-18T07:41:22.749Z,84.25
2022-10-18T07:43:51.789Z,84.02
2022-10-18T07:46:21.210Z,83.43
2022-10-18T07:48:49.125Z,83.06
2022-10-18T07:51:17.148Z,82.19
2022-10-18T07:53:44.263Z,82.25
2022-10-18T07:56:17.049Z,82.17
2022-10-18T07:58:45.334Z,81.81
2022-10-18T08:01:13.511Z,80.86
2022-10-18T08:03:41.967Z,79.58
2022-10-18T08:06:11.008Z,79.39
2022-10-18T08:08:40.354Z,79.29
2022-10-18T08:11:27.701Z,79.67
2022-10-18T08:13:55.067Z,79.27
2022-10-18T08:16:24.748Z,78.50
2022-10-18T08:18:52.529Z,78.29
2022-10-18T08:21:21.083Z,79.03
2022-10-18T08:23:49.154Z,78.58
2022-10-18T08:26:18.558Z,78.52
2022-10-18T08:28:54.108Z,77.05
2022-10-18T08:31:26.569Z,77.80
2022-10-18T08:33:57.179Z,78.22
2022-10-18T08:36:24.867Z,77.48
2022-10-18T08:38:52.320Z,76.92
2022-10-18T08:41:36.635Z,76.92
2022-10-18T08:44:33.021Z,77.42
2022-10-18T08:47:07.002Z,75.49
2022-10-18T08:49:36.875Z,75.45
2022-10-18T08:52:12.322Z,75.94
2022-10-18T08:55:00.050Z,74.75
2022-10-18T08:57:27.326Z,73.91
2022-10-18T08:59:54.517Z,75.23
2022-10-18T09:02:49.634Z,74.46
2022-10-18T09:05:27.653Z,74.29
2022-10-18T09:08:38.978Z,74.08
2022-10-18T09:11:33.350Z,73.57
2022-10-18T09:14:17.626Z,73.33
2022-10-18T09:16:53.234Z,72.18
2022-10-18T09:19:29.390Z,72.66
2022-10-18T09:22:11.912Z,72.47
2022-10-18T09:24:39.947Z,72.11
2022-10-18T09:27:18.228Z,72.51
2022-10-18T09:29:48.224Z,71.50
2022-10-18T09:32:27.349Z,70.03
2022-10-18T09:35:15.732Z,68.52
2022-10-18T09:37:44.418Z,68.92
2022-10-18T09:40:18.983Z,68.13
2022-10-18T09:42:58.331Z,69.89
2022-10-18T09:45:32.634Z,67.89
2022-10-18T09:48:03.095Z,67.73
2022-10-18T09:50:42.412Z,68.20
2022-10-18T09:53:38.147Z,67.80
2022-10-18T09:56:09.411Z,67.49
2022-10-18T09:58:47.697Z,67.63
2022-10-18T10:01:19.781Z,67.33
2022-10-18T10:03:46.932Z,66.59
2022-10-18T10:06:16.623Z,65.49
2022-10-18T10:08:48.891Z,64.87
2022-10-18T10:11:36.147Z,65.44
2022-10-18T10:16:54.846Z,64.42
2022-10-18T10:19:55.620Z,63.71
2022-10-18T10:22:35.769Z,64.83
2022-10-18T10:25:04.063Z,64.38
2022-10-18T10:27:43.547Z,63.78
2022-10-18T10:30:37.408Z,62.82
2022-10-18T10:33:05.250Z,63.36
2022-10-18T10:38:29.355Z,62.92
2022-10-18T10:40:57.734Z,62.50
2022-10-18T10:43:44.056Z,61.82
2022-10-18T10:46:18.828Z,61.00
2022-10-18T10:48:49.689Z,60.46
2022-10-18T10:51:28.796Z,61.58
2022-10-18T10:54:24.413Z,59.95
2022-10-18T10:57:05.025Z,59.80
2022-10-18T11:02:14.212Z,58.95
2022-10-18T11:04:42.837Z,57.84
2022-10-18T11:07:09.892Z,57.84
2022-10-18T11:09:45.765Z,58.03
2022-10-18T11:12:28.549Z,58.63
2022-10-18T11:15:13.875Z,57.76
2022-10-18T11:18:04.684Z,56.71
2022-10-18T11:21:13.086Z,57.79
2022-10-18T11:23:42.855Z,56.70
2022-10-18T11:26:12.768Z,56.40
2022-10-18T11:28:54.413Z,56.90
2022-10-18T11:31:47.317Z,56.55
2022-10-18T11:34:47.387Z,56.06
2022-10-18T11:37:42.214Z,54.78
2022-10-18T11:40:32.416Z,54.59
2022-10-18T11:43:16.475Z,54.68
2022-10-18T11:46:12.719Z,54.71
2022-10-18T11:49:14.052Z,54.79
2022-10-18T11:52:07.728Z,55.52
2022-10-18T11:54:56.873Z,55.35
2022-10-18T11:58:03.792Z,54.55
2022-10-18T12:00:33.573Z,53.76
2022-10-18T12:03:07.423Z,55.29
2022-10-18T12:05:37.996Z,55.07
2022-10-18T12:08:23.098Z,51.69
2022-10-18T12:11:08.949Z,53.85
2022-10-18T12:13:46.318Z,52.61
2022-10-18T12:16:14.362Z,52.69
2022-10-18T12:19:04.430Z,53.21
2022-10-18T12:21:34.177Z,53.49
2022-10-18T12:24:11.035Z,53.24
2022-10-18T12:26:38.526Z,52.15
2022-10-18T12:29:08.341Z,53.20
2022-10-18T12:31:59.007Z,51.00
2022-10-18T12:34:32.027Z,51.46
2022-10-18T12:37:11.181Z,50.48
2022-10-18T12:40:09.448Z,51.25
2022-10-18T12:42:42.764Z,51.03
2022-10-18T12:45:32.217Z,50.49
2022-10-18T12:48:01.987Z,52.67
2022-10-18T12:50:42.051Z,51.02
2022-10-18T12:53:12.281Z,51.25
2022-10-18T12:55:44.607Z,51.93
2022-10-18T12:58:14.767Z,49.74
2022-10-18T13:00:41.839Z,49.55
2022-10-18T13:03:17.973Z,49.33
2022-10-18T13:05:53.500Z,50.17
2022-10-18T13:08:27.904Z,49.70
2022-10-18T13:11:10.174Z,49.72
2022-10-18T13:13:52.360Z,50.51
2022-10-18T13:16:46.746Z,49.65
2022-10-18T13:19:32.687Z,50.08
2022-10-18T13:21:59.727Z,49.85
2022-10-18T13:24:32.070Z,50.55
2022-10-18T13:27:35.832Z,52.41
2022-10-18T13:30:21.869Z,52.53
2022-10-18T13:33:16.691Z,52.39
2022-10-18T13:36:07.055Z,49.14
2022-10-18T13:38:55.676Z,47.93
2022-10-18T13:41:34.392Z,48.54
2022-10-18T13:44:37.739Z,51.19
2022-10-18T13:47:05.488Z,50.30
2022-10-18T13:49:48.883Z,50.80
2022-10-18T13:52:47.047Z,51.07
2022-10-18T13:55:29.306Z,51.43
2022-10-18T13:58:17.298Z,49.75
2022-10-18T14:00:52.462Z,48.79
2022-10-18T14:03:56.985Z,50.45
2022-10-18T14:06:32.640Z,48.93
2022-10-18T14:09:25.707Z,49.41
2022-10-18T14:12:14.704Z,49.89
2022-10-18T14:14:54.927Z,50.47
2022-10-18T14:17:50.012Z,47.86
2022-10-18T14:20:20.924Z,48.04
2022-10-18T14:22:53.558Z,49.21
2022-10-18T14:25:41.299Z,49.77
2022-10-18T14:28:15.618Z,50.38
2022-10-18T14:31:07.305Z,50.30
2022-10-18T14:33:34.394Z,49.20
2022-10-18T14:36:08.153Z,50.48
2022-10-18T14:38:45.742Z,50.95
2022-10-18T14:41:26.466Z,49.47
2022-10-18T14:44:16.525Z,50.98
2022-10-18T14:46:48.726Z,50.84
2022-10-18T14:49:18.101Z,52.70
2022-10-18T14:51:48.691Z,52.42
2022-10-18T14:54:31.956Z,51.11
2022-10-18T14:57:01.133Z,52.05
2022-10-18T14:59:32.462Z,52.35
2022-10-18T15:02:05.006Z,53.46
2022-10-18T15:04:33.179Z,53.76
2022-10-18T15:07:02.010Z,53.13
2022-10-18T15:09:30.536Z,54.69
2022-10-18T15:11:58.375Z,54.83
2022-10-18T15:14:27.523Z,55.91
2022-10-18T15:17:00.541Z,57.03
2022-10-18T15:19:31.222Z,57.46
2022-10-18T15:22:31.219Z,55.24
2022-10-18T15:25:18.260Z,57.54
2022-10-18T15:27:48.544Z,58.10
2022-10-18T15:30:18.701Z,58.03
2022-10-18T15:32:55.989Z,58.65
2022-10-18T15:35:32.294Z,58.39
2022-10-18T15:38:04.844Z,59.48
2022-10-18T15:40:36.033Z,60.41
2022-10-18T15:43:06.162Z,60.71
2022-10-18T15:45:37.531Z,61.50
2022-10-18T15:48:10.632Z,62.19
2022-10-18T15:50:39.668Z,62.12
2022-10-18T15:53:25.207Z,62.09
2022-10-18T15:56:01.191Z,61.76
2022-10-18T15:58:36.210Z,62.61
2022-10-18T16:01:04.440Z,62.68
2022-10-18T16:03:35.740Z,63.08
2022-10-18T16:06:07.532Z,63.65
2022-10-18T16:08:40.945Z,63.67
2022-10-18T16:11:14.814Z,64.46
2022-10-18T16:13:43.983Z,64.80
2022-10-18T16:16:17.880Z,65.25
2022-10-18T16:18:45.294Z,65.81
2022-10-18T16:21:20.526Z,65.97
2022-10-18T16:23:49.049Z,66.03
2022-10-18T16:26:17.693Z,66.40
2022-10-18T16:28:45.907Z,67.56
2022-10-18T16:31:24.725Z,68.02
2022-10-18T16:33:54.792Z,68.26
2022-10-18T16:36:33.458Z,68.62
2022-10-18T16:39:03.806Z,68.68
2022-10-18T16:41:30.909Z,69.35
2022-10-18T16:43:58.002Z,69.72
2022-10-18T16:46:28.774Z,70.10
2022-10-18T16:48:56.890Z,70.02
2022-10-18T16:51:24.264Z,70.13
2022-10-18T16:53:53.331Z,70.89
2022-10-18T16:56:32.124Z,71.61
2022-10-18T16:59:00.383Z,71.90
2022-10-18T17:01:27.982Z,73.17
2022-10-18T17:03:55.314Z,73.45
2022-10-18T17:06:26.861Z,73.92
2022-10-18T17:08:55.318Z,73.73
2022-10-18T17:11:24.513Z,73.51
2022-10-18T17:13:51.617Z,73.08
2022-10-18T17:18:57.716Z,72.38
2022-10-18T17:21:26.362Z,72.96
2022-10-18T17:23:53.546Z,72.95
2022-10-18T17:26:28.930Z,73.30
2022-10-18T17:29:02.930Z,73.82
2022-10-18T17:31:30.720Z,74.94
2022-10-18T17:33:59.735Z,75.05
2022-10-18T17:36:27.136Z,76.29
2022-10-18T17:38:54.782Z,78.12
2022-10-18T17:41:22.312Z,79.21
2022-10-18T17:43:49.822Z,80.38
2022-10-18T17:46:17.952Z,80.75
2022-10-18T17:48:45.581Z,79.41
2022-10-18T17:51:15.135Z,79.80
2022-10-18T17:53:42.355Z,80.55
2022-10-18T17:56:10.531Z,80.41
2022-10-18T17:58:37.753Z,81.91
2022-10-18T18:01:19.423Z,82.35
2022-10-18T18:03:49.677Z,81.78
2022-10-18T18:06:23.713Z,81.85
2022-10-18T18:08:50.884Z,82.22
2022-10-18T18:11:18.670Z,82.69
2022-10-18T18:13:45.948Z,83.58
2022-10-18T18:16:22.026Z,83.75
2022-10-18T18:18:52.097Z,83.94
2022-10-18T18:21:20.283Z,83.53
2022-10-18T18:23:48.527Z,83.12
2022-10-18T18:26:17.606Z,82.83
2022-10-18T18:28:44.922Z,82.29
2022-10-18T18:31:16.396Z,83.31
2022-10-18T18:33:43.827Z,84.31
2022-10-18T18:36:11.691Z,85.40
2022-10-18T18:38:42.527Z,86.14
2022-10-18T18:41:18.586Z,86.27
2022-10-18T18:43:51.170Z,84.93
2022-10-18T18:46:18.416Z,84.18
2022-10-18T18:48:45.619Z,83.59
2022-10-18T18:51:15.779Z,83.02
2022-10-18T18:53:44.243Z,83.39
2022-10-18T18:56:14.582Z,83.30
2022-10-18T18:58:43.987Z,83.60
2022-10-18T19:01:14.878Z,82.89
2022-10-18T19:03:42.947Z,82.67
2022-10-18T19:06:15.859Z,82.58
2022-10-18T19:08:44.839Z,84.33
2022-10-18T19:11:17.970Z,84.66
2022-10-18T19:13:45.606Z,84.20
2022-10-18T19:16:27.797Z,84.33
2022-10-18T19:19:06.832Z,84.25
2022-10-18T19:21:44.243Z,84.60
2022-10-18T19:24:11.779Z,84.40
2022-10-18T19:26:50.302Z,84.72
2022-10-18T19:29:22.596Z,85.48
2022-10-18T19:31:54.825Z,85.58
2022-10-18T19:34:23.735Z,85.47
2022-10-18T19:36:51.793Z,85.47
2022-10-18T19:39:22.030Z,85.74
2022-10-18T19:41:51.730Z,85.83
2022-10-18T19:44:19.741Z,85.95
2022-10-18T19:46:48.219Z,86.43
2022-10-18T19:49:16.388Z,86.32
2022-10-18T19:51:43.668Z,86.91
2022-10-18T19:54:11.950Z,86.80
2022-10-18T19:56:41.058Z,86.44
2022-10-18T19:59:09.036Z,86.71
2022-10-18T20:01:36.960Z,86.55
2022-10-18T20:04:04.751Z,86.20
2022-10-18T20:06:32.171Z,86.37
2022-10-18T20:08:59.482Z,86.45
2022-10-18T20:11:28.411Z,86.37
2022-10-18T20:13:55.997Z,86.64
2022-10-18T20:16:28.888Z,86.51
2022-10-18T20:19:01.393Z,87.05
2022-10-18T20:21:30.099Z,88.18
2022-10-18T20:23:57.495Z,88.89
2022-10-18T20:26:25.454Z,88.41
2022-10-18T20:28:57.122Z,88.04
2022-10-18T20:31:26.464Z,87.88
2022-10-18T20:34:04.975Z,87.88
2022-10-18T20:36:32.921Z,87.87
2022-10-18T20:39:00.731Z,87.79
2022-10-18T20:41:34.011Z,87.74
2022-10-18T20:44:03.966Z,87.70
2022-10-18T20:46:33.694Z,87.76
2022-10-18T20:49:01.042Z,87.57
2022-10-18T20:51:28.564Z,87.77
2022-10-18T20:53:55.783Z,87.46
2022-10-18T20:56:26.539Z,87.97
2022-10-18T20:58:56.498Z,88.44
2022-10-18T21:01:26.394Z,88.72
2022-10-18T21:03:55.932Z,88.70
2022-10-18T21:06:34.668Z,88.55
2022-10-18T21:09:05.659Z,88.35
2022-10-18T21:11:36.713Z,88.46
2022-10-18T21:14:05.067Z,88.41
2022-10-18T21:16:34.955Z,88.62
2022-10-18T21:19:07.442Z,88.82
2022-10-18T21:21:35.200Z,88.72
2022-10-18T21:24:05.532Z,88.38
2022-10-18T21:26:35.695Z,87.95
2022-10-18T21:29:04.299Z,88.40
2022-10-18T21:31:37.188Z,88.83
2022-10-18T21:34:07.390Z,89.45
2022-10-18T21:36:36.737Z,89.14
2022-10-18T21:39:06.344Z,89.69
2022-10-18T21:41:34.266Z,89.93
2022-10-18T21:44:04.505Z,90.06
2022-10-18T21:46:34.697Z,90.62
2022-10-18T21:49:01.798Z,90.81
2022-10-18T21:51:29.274Z,91.04
2022-10-18T21:53:58.148Z,91.58
2022-10-18T21:56:27.741Z,91.72
2022-10-18T21:58:55.726Z,91.14
2022-10-18T22:01:26.195Z,91.37
2022-10-18T22:03:55.686Z,91.73
2022-10-18T22:06:23.995Z,92.20
2022-10-18T22:08:54.167Z,92.74
2022-10-18T22:11:25.724Z,92.58
2022-10-18T22:13:53.154Z,92.76
2022-10-18T22:16:20.819Z,93.19
2022-10-18T22:18:49.066Z,93.19
2022-10-18T22:21:18.158Z,93.16
2022-10-18T22:23:47.556Z,93.48
2022-10-18T22:26:20.442Z,93.72
2022-10-18T22:28:53.125Z,93.79
2022-10-18T22:31:23.067Z,94.07
2022-10-18T22:33:58.911Z,93.92
2022-10-18T22:36:26.679Z,94.25
2022-10-18T22:38:54.046Z,94.38
2022-10-18T22:41:21.613Z,94.34
2022-10-18T22:43:50.319Z,94.28
2022-10-18T22:46:17.863Z,94.56
2022-10-18T22:48:45.408Z,94.47
2022-10-18T22:51:12.966Z,95.15
2022-10-18T22:53:40.945Z,94.55
2022-10-18T22:56:11.811Z,94.49
2022-10-18T22:58:38.894Z,94.47
2022-10-18T23:01:10.142Z,94.30
2022-10-18T23:03:38.203Z,94.40
2022-10-18T23:06:17.062Z,94.21
2022-10-18T23:08:44.139Z,94.27
2022-10-18T23:11:11.287Z,94.53
2022-10-18T23:13:39.625Z,94.42
2022-10-18T23:16:07.258Z,94.92
2022-10-18T23:18:34.749Z,95.13
2022-10-18T23:21:09.229Z,95.32
2022-10-18T23:23:38.333Z,95.63
2022-10-18T23:26:08.187Z,95.63
2022-10-18T23:28:37.292Z,95.44
2022-10-18T23:31:09.821Z,94.50
2022-10-18T23:33:37.476Z,93.08
2022-10-18T23:36:05.734Z,92.37
2022-10-18T23:38:34.056Z,92.03
2022-10-18T23:41:01.177Z,93.08
2022-10-18T23:43:28.350Z,93.76
2022-10-18T23:45:55.512Z,95.45
2022-10-18T23:48:22.594Z,95.95
2022-10-18T23:50:49.946Z,96.63
2022-10-18T23:53:19.476Z,96.79
2022-10-18T23:55:53.893Z,96.94
2022-10-18T23:58:21.412Z,96.83
